Terminal Aerodrome Forecast
Issued by NWS Caribou, ME

Home | Current Version | Previous Version | Text Only | Print | Product List | Glossary On
Versions: 1 2 3 4 5 6 7 8 9 10 11 12 13 14 15 16
769
FTUS41 KCAR 270525
TAFCAR
TAF
KCAR 270525Z 2706/2806 24009KT P6SM OVC024
     FM271000 25006KT P6SM SCT050
     FM271600 22005KT P6SM BKN070
     FM272200 18004KT 5SM -RA OVC035
     FM280400 15004KT P6SM VCSH OVC007=

USA.gov is the U.S. government's official web portal to all federal, state and local government web resources and services.